Wednesday, April 25, 2018, 5:05 AM EDT
Back to Local

KIWI, Wiscasset Municipal Airport

Location: Wiscasset, ME, United States Lat: 43.967
Local Time: 5:05 AM EDT ( 9:05 GMT) Lon: -69.717
Time Zone: US/Eastern Elev: 68 ft

Show me the last for .
Show Coded

Time T Td Feel RH Dir Speed Gust Alt SLP Vis Weather Sky Remarks
2018-04-25 03:53 49 38 47 65 210° 6 - 30.19 30.19 10 CLR None
2018-04-25 02:53 49 39 43 68 220° 8 16 30.20 30.20 10 CLR None
2018-04-25 01:53 49 39 45 68 220° 8 - 30.21 30.21 10 CLR 6-hr Min Temp (2am): 48.9°F
6-hr Max Temp (2am): 52.0°F
2018-04-25 00:53 50 38 48 63 Variable 6 - 30.23 30.22 10 CLR 24-hr Min Temp (1am): 30.9°F
24-hr Max Temp (1am): 63.0°F
2018-04-24 23:53 50 35 47 56 220° 8 - 30.23 30.23 10 CLR None
2018-04-24 22:53 51 36 - 56 220° 12 17 30.23 30.23 10 CLR None
2018-04-24 21:53 51 36 - 56 210° 9 - 30.24 30.24 10 CLR None
2018-04-24 20:53 51 37 - 58 210° 6 - 30.24 30.24 10 CLR None
2018-04-24 19:53 51 39 - 63 190° 6 - 30.24 30.24 10 CLR 6-hr Min Temp (8pm): 51.1°F
6-hr Max Temp (8pm): 63.0°F
2018-04-24 18:53 52 39 - 61 200° 9 - 30.24 30.24 10 CLR None
2018-04-24 17:53 54 39 - 56 200° 13 21 30.25 30.25 10 CLR None
2018-04-24 16:53 59 34 - 38 200° 13 20 30.26 30.26 10 CLR None
2018-04-24 15:53 61 35 - 37 200° 8 - 30.27 30.27 10 CLR None
2018-04-24 14:53 61 38 - 42 170° 8 - 30.27 30.27 10 CLR None
2018-04-24 13:53 62 35 - 36 180° 10 - 30.29 30.29 10 CLR 6-hr Min Temp (2pm): 48.9°F
6-hr Max Temp (2pm): 63.0°F
2018-04-24 12:53 61 37 - 40 160° 8 - 30.30 30.30 10 CLR None
2018-04-24 11:53 60 31 - 33 200° 7 - 30.33 30.32 10 CLR None
2018-04-24 10:53 56 30 - 36 190° 9 - 30.35 30.35 10 CLR None
2018-04-24 09:53 54 30 - 39 190° 6 - 30.36 30.36 10 CLR None
2018-04-24 08:53 53 30 - 41 210° 9 - 30.37 30.37 10 CLR None
2018-04-24 07:53 49 32 46 51 200° 7 - 30.37 30.37 10 CLR 6-hr Min Temp (8am): 30.9°F
6-hr Max Temp (8am): 48.9°F
2018-04-24 06:53 44 33 42 65 210° 5 - 30.36 30.36 10 CLR None
2018-04-24 05:53 32 29 - 88 - Calm - 30.37 30.37 10 CLR None

Support USWX by starting your Amazon purchase here.